Main page
Satellite images Climate Cyclones Lightning AirportsFAQ Languages Contact Newsletter About
Weather : Europe Africa North America South America Asia Australia-Oceania Others

shenzhen-cn, Shenzhen, Shenzhen Bao'an International Airport

45004

latitude: , longitude: China, elevation: 22-33N m


METAR: ZGSZ 101100Z 19007MPS CAVOK 30/27 Q1002 NOSIG